Time;durP1;ratioP1;P1;durP2;ratioP2;P2;SDS_P1;SDS_P2;PMS_P1;PMS_P2;Temp;Humidity;BMP_temperature;BMP_pressure;BME280_temperature;BME280_humidity;BME280_pressure;Samples;Min_cycle;Max_cycle;Signal;HPM_P1;HPM_P2
2022/08/25 00:00:47;;;;;;;34.97;12.55;;;;;;;20.74;71.24;94976.28;5019897;28;20037;-84
2022/08/25 00:03:14;;;;;;;36.33;11.10;;;;;;;21.32;71.74;95056.84;5017958;28;20047;-85
2022/08/25 00:05:40;;;;;;;32.50;11.98;;;;;;;21.31;71.69;95063.38;5019545;28;20498;-85
2022/08/25 00:08:06;;;;;;;36.58;11.18;;;;;;;21.53;72.37;95112.16;5018888;28;20057;-85
2022/08/25 00:10:34;;;;;;;31.08;11.18;;;;;;;21.04;72.04;95030.66;5017935;28;20064;-85
2022/08/25 00:13:02;;;;;;;40.70;11.57;;;;;;;21.46;72.14;95093.09;5019305;28;20435;-85
2022/08/25 00:15:30;;;;;;;36.25;10.82;;;;;;;21.64;71.91;95109.75;5017822;28;20045;-85
2022/08/25 00:17:56;;;;;;;33.17;10.70;;;;;;;21.39;71.43;95084.78;5017765;28;20121;-85
2022/08/25 00:20:22;;;;;;;32.90;11.82;;;;;;;20.67;72.17;94967.22;5018214;28;20124;-85
2022/08/25 00:22:48;;;;;;;29.48;10.93;;;;;;;21.16;71.92;95044.09;5018283;28;20042;-86
2022/08/25 00:25:14;;;;;;;43.20;11.30;;;;;;;21.14;71.75;95037.44;5019193;28;20052;-85
2022/08/25 00:27:39;;;;;;;30.45;12.30;;;;;;;20.97;72.64;95043.16;5017509;28;20039;-85
2022/08/25 00:30:05;;;;;;;36.08;11.48;;;;;;;21.13;71.97;95047.44;5017166;28;20037;-85
2022/08/25 00:32:31;;;;;;;47.50;11.90;;;;;;;21.30;72.59;95096.84;5017465;28;20380;-85
2022/08/25 00:34:57;;;;;;;30.73;11.48;;;;;;;21.18;72.75;95068.03;5017741;28;20452;-85
2022/08/25 00:37:22;;;;;;;29.08;10.82;;;;;;;21.04;72.38;95033.34;5019190;28;20041;-85
2022/08/25 00:39:48;;;;;;;29.85;10.93;;;;;;;20.83;72.16;94991.53;5034262;28;20037;-85
2022/08/25 00:42:14;;;;;;;43.88;11.15;;;;;;;21.42;72.03;95075.25;5017431;28;20049;-85
2022/08/25 00:44:40;;;;;;;34.47;11.55;;;;;;;21.58;72.18;95099.56;5016960;28;20307;-85
2022/08/25 00:47:07;;;;;;;29.65;9.82;;;;;;;21.27;72.07;95051.72;5016865;28;20037;-85
2022/08/25 00:49:56;;;;;;;29.33;10.65;;;;;;;21.37;73.00;95111.31;5017091;28;20033;-85
2022/08/25 00:52:44;;;;;;;36.45;12.18;;;;;;;21.22;73.07;95095.88;5016146;28;20052;-85
2022/08/25 00:55:20;;;;;;;44.47;11.65;;;;;;;21.27;73.15;95094.88;5018715;28;20056;-84
2022/08/25 00:57:52;;;;;;;34.47;11.98;;;;;;;21.06;72.79;95051.84;5017876;28;20448;-85
2022/08/25 01:00:27;;;;;;;45.35;10.90;;;;;;;21.09;72.45;95046.56;5016581;28;20490;-85
2022/08/25 01:02:55;;;;;;;33.20;11.13;;;;;;;21.30;72.68;95075.28;5017099;28;20512;-85
2022/08/25 01:05:21;;;;;;;36.35;11.00;;;;;;;20.54;72.45;94952.19;5016875;28;20021;-85
2022/08/25 01:07:49;;;;;;;35.25;10.70;;;;;;;20.59;73.21;94993.19;5016478;28;20049;-85
2022/08/25 01:10:16;;;;;;;40.22;10.55;;;;;;;20.33;73.10;94933.50;5032577;28;20051;-85
2022/08/25 01:12:42;;;;;;;38.67;11.48;;;;;;;20.70;72.96;94977.28;5016416;28;20131;-85
2022/08/25 01:15:11;;;;;;;27.52;9.90;;;;;;;20.54;72.48;94944.13;5016529;28;20137;-85
2022/08/25 01:17:50;;;;;;;31.80;10.63;;;;;;;20.95;73.47;95021.13;5016014;28;20040;-86
2022/08/25 01:20:18;;;;;;;36.28;11.57;;;;;;;21.22;72.74;95031.16;5016955;28;20041;-85
2022/08/25 01:22:44;;;;;;;33.65;11.02;;;;;;;20.79;72.62;94983.34;5018512;28;20033;-85
2022/08/25 01:25:26;;;;;;;37.63;11.60;;;;;;;21.07;72.83;95040.72;5016578;28;20057;-85
2022/08/25 01:27:52;;;;;;;29.35;10.85;;;;;;;20.71;72.94;94981.56;5016989;28;20029;-86
2022/08/25 01:30:18;;;;;;;37.63;11.50;;;;;;;21.38;72.88;95080.53;5016662;28;20526;-86
2022/08/25 01:32:44;;;;;;;39.15;11.60;;;;;;;21.00;72.68;95021.66;5017828;28;20033;-85
2022/08/25 01:35:13;;;;;;;29.73;10.43;;;;;;;20.04;72.55;94870.75;5017025;28;20693;-85
2022/08/25 01:37:39;;;;;;;36.15;11.30;;;;;;;20.90;72.76;94983.66;5017483;28;20033;-86
2022/08/25 01:40:05;;;;;;;42.13;12.18;;;;;;;21.17;72.74;95028.72;5017306;28;20033;-85
2022/08/25 01:43:05;;;;;;;30.55;11.18;;;;;;;21.64;72.11;95073.91;5016747;28;20033;-85
2022/08/25 01:45:32;;;;;;;31.00;11.80;;;;;;;21.58;72.54;95076.06;5016984;28;20035;-85
2022/08/25 01:47:57;;;;;;;32.60;11.85;;;;;;;20.57;72.14;94914.59;5018574;28;20041;-85
2022/08/25 01:50:23;;;;;;;29.65;10.38;;;;;;;20.78;72.60;94969.06;5018785;28;20041;-85
2022/08/25 01:53:27;;;;;;;22.40;11.38;;;;;;;21.54;72.46;95081.34;5017660;28;20091;-85
2022/08/25 01:56:04;;;;;;;42.45;11.32;;;;;;;21.58;72.80;95084.16;5017222;28;20091;-86
2022/08/25 01:58:33;;;;;;;32.35;11.98;;;;;;;21.50;72.75;95080.50;5016718;28;20033;-85
2022/08/25 02:01:01;;;;;;;39.00;12.80;;;;;;;20.63;72.80;94942.06;5018886;28;20033;-85
2022/08/25 02:03:28;;;;;;;44.78;13.13;;;;;;;21.15;72.52;95017.44;5016627;28;20482;-86
2022/08/25 02:05:55;;;;;;;43.72;11.82;;;;;;;20.66;73.73;95006.84;5018140;28;20038;-85
2022/08/25 02:08:21;;;;;;;30.10;12.25;;;;;;;21.21;74.03;95069.28;5016045;28;20259;-86
2022/08/25 02:10:48;;;;;;;28.30;10.90;;;;;;;21.09;73.07;95049.28;5016164;28;20412;-85
2022/08/25 02:13:14;;;;;;;30.40;10.55;;;;;;;21.33;72.18;95071.91;5016447;28;20492;-85
2022/08/25 02:15:47;;;;;;;34.08;11.68;;;;;;;21.09;73.02;95072.75;5032836;28;20033;-86
2022/08/25 02:18:13;;;;;;;40.47;11.40;;;;;;;20.58;74.00;95018.53;5016295;28;20041;-85
2022/08/25 02:20:39;;;;;;;37.95;11.30;;;;;;;20.55;73.45;94986.88;5019783;28;20065;-85
2022/08/25 02:23:05;;;;;;;35.17;10.93;;;;;;;20.71;72.76;94993.13;5020125;28;20149;-86
2022/08/25 02:25:31;;;;;;;31.55;10.88;;;;;;;20.77;72.86;95017.91;5022062;28;20120;-86
2022/08/25 02:27:57;;;;;;;41.28;12.02;;;;;;;20.52;73.03;94960.63;5020799;28;20434;-85
2022/08/25 02:30:23;;;;;;;30.80;10.88;;;;;;;20.75;72.42;94969.75;5021074;28;20038;-85
2022/08/25 02:32:48;;;;;;;32.58;11.23;;;;;;;20.65;72.49;94951.38;5036425;28;20041;-85
2022/08/25 02:35:14;;;;;;;37.25;12.23;;;;;;;21.26;72.91;95058.22;5019679;28;20415;-86
2022/08/25 02:37:40;;;;;;;29.98;11.52;;;;;;;21.30;72.46;95059.09;5019971;28;20523;-85
2022/08/25 02:40:06;;;;;;;39.88;10.95;;;;;;;20.99;72.94;95043.56;5019179;28;20436;-85
2022/08/25 02:42:32;;;;;;;40.50;11.15;;;;;;;20.91;72.83;95010.22;5019302;28;20516;-85
2022/08/25 02:44:57;;;;;;;35.58;11.68;;;;;;;21.15;72.79;95039.00;5018820;28;20033;-85
2022/08/25 02:47:23;;;;;;;35.53;11.20;;;;;;;20.86;72.08;94982.75;5019300;28;20047;-85
2022/08/25 02:49:49;;;;;;;32.95;10.30;;;;;;;20.77;72.05;94986.38;5019308;28;20144;-85
2022/08/25 02:52:15;;;;;;;31.08;10.98;;;;;;;20.88;72.30;95037.88;5020019;28;20454;-85
2022/08/25 02:54:40;;;;;;;44.75;10.98;;;;;;;20.38;72.71;94969.06;5021444;28;20108;-85
2022/08/25 02:57:06;;;;;;;37.97;10.35;;;;;;;20.04;72.74;94935.34;5019203;28;20520;-85
2022/08/25 02:59:32;;;;;;;35.25;10.15;;;;;;;20.77;72.56;95047.56;5019794;28;20083;-86
2022/08/25 03:01:57;;;;;;;49.97;10.88;;;;;;;19.92;73.14;94948.81;5019409;28;20048;-85
2022/08/25 03:04:23;;;;;;;31.17;11.02;;;;;;;20.67;73.04;95048.06;5019133;28;20041;-85
2022/08/25 03:06:49;;;;;;;35.38;10.55;;;;;;;20.06;72.46;94963.84;5018678;28;20049;-85
2022/08/25 03:09:15;;;;;;;37.15;10.32;;;;;;;20.92;72.59;95081.09;5018905;28;20033;-85
2022/08/25 03:11:41;;;;;;;34.50;10.80;;;;;;;20.26;73.27;95011.38;5019001;28;20044;-85
2022/08/25 03:14:08;;;;;;;32.03;11.45;;;;;;;20.04;73.40;94973.03;5020796;28;20041;-85
2022/08/25 03:16:34;;;;;;;37.03;10.80;;;;;;;20.58;73.54;95045.47;5019435;28;20578;-85
2022/08/25 03:19:00;;;;;;;28.95;10.13;;;;;;;19.90;73.37;94936.81;5018945;28;20447;-85
2022/08/25 03:21:27;;;;;;;25.67;10.10;;;;;;;19.61;73.95;94917.09;5020463;28;20041;-85
2022/08/25 03:23:54;;;;;;;38.17;10.75;;;;;;;20.16;73.46;95001.06;5019413;28;20033;-85
2022/08/25 03:29:06;;;;;;;37.13;11.30;;;;;;;20.16;74.08;95025.28;5020608;28;20103;-86
2022/08/25 03:31:33;;;;;;;38.50;12.07;;;;;;;20.44;73.46;95046.97;5017688;28;20045;-86
2022/08/25 03:33:59;;;;;;;32.33;10.20;;;;;;;19.52;73.18;94886.06;5020337;28;20041;-85
2022/08/25 03:36:26;;;;;;;34.42;10.82;;;;;;;20.48;73.11;95035.16;5018766;28;20095;-86
2022/08/25 03:38:52;;;;;;;28.48;10.70;;;;;;;20.15;72.36;94967.97;5017950;28;20045;-85
2022/08/25 03:41:22;;;;;;;41.03;12.00;;;;;;;20.67;73.18;95086.53;5018508;28;20041;-85
2022/08/25 03:43:48;;;;;;;37.10;10.88;;;;;;;20.36;72.99;95022.50;5018613;28;20451;-86
2022/08/25 03:46:25;;;;;;;45.88;10.98;;;;;;;20.42;71.74;94988.03;5020031;28;20037;-85
2022/08/25 03:48:51;;;;;;;31.02;10.27;;;;;;;20.78;72.45;95074.19;5018309;28;20037;-85
2022/08/25 03:51:26;;;;;;;44.13;11.80;;;;;;;20.53;73.06;95026.06;5019965;28;20036;-85
2022/08/25 03:53:52;;;;;;;38.55;10.35;;;;;;;20.48;72.78;95026.28;5017763;28;20044;-86
2022/08/25 03:56:18;;;;;;;27.88;11.15;;;;;;;20.80;72.85;95065.75;5018278;28;20041;-86
2022/08/25 03:58:44;;;;;;;35.78;11.10;;;;;;;20.41;72.20;94989.94;5020091;28;20047;-86
2022/08/25 04:01:10;;;;;;;34.17;10.40;;;;;;;20.83;71.76;95040.03;5018457;28;20375;-85
2022/08/25 04:03:35;;;;;;;25.65;10.07;;;;;;;20.78;71.74;95033.75;5019348;28;20071;-85
2022/08/25 04:06:02;;;;;;;30.90;10.93;;;;;;;20.79;71.83;95043.41;5017451;28;20428;-85
2022/08/25 04:08:28;;;;;;;27.88;10.18;;;;;;;20.62;72.00;95032.88;5019732;28;20049;-85
2022/08/25 04:10:54;;;;;;;38.72;11.75;;;;;;;19.47;71.74;94854.78;5018160;28;20144;-85
2022/08/25 04:13:20;;;;;;;37.70;11.18;;;;;;;20.53;72.27;95017.97;5017462;28;20051;-85
2022/08/25 04:15:46;;;;;;;38.22;11.40;;;;;;;20.38;72.29;95008.69;5018893;28;20428;-85
2022/08/25 04:18:12;;;;;;;37.13;11.70;;;;;;;20.60;72.41;95039.72;5016701;28;20049;-85
2022/08/25 04:20:39;;;;;;;31.27;10.73;;;;;;;20.20;72.15;94975.03;5017385;28;20691;-85
2022/08/25 04:23:04;;;;;;;39.85;12.63;;;;;;;20.36;72.56;95019.81;5017151;28;20076;-85
2022/08/25 04:25:30;;;;;;;36.33;16.05;;;;;;;20.37;72.41;95013.28;5018978;28;20511;-85
2022/08/25 04:27:56;;;;;;;49.75;17.80;;;;;;;19.93;72.85;94954.97;5017674;28;20041;-85
2022/08/25 04:30:22;;;;;;;44.72;16.85;;;;;;;19.88;72.94;94952.53;5017108;28;20033;-85
2022/08/25 04:32:48;;;;;;;43.95;15.90;;;;;;;19.88;72.81;94941.75;5017779;28;20060;-86
2022/08/25 04:35:14;;;;;;;41.42;19.08;;;;;;;19.65;73.05;94925.28;5017801;28;20534;-85
2022/08/25 04:37:39;;;;;;;39.53;17.63;;;;;;;20.29;72.61;95002.63;5019110;28;20045;-86
2022/08/25 04:40:06;;;;;;;43.65;17.42;;;;;;;19.88;71.93;94918.31;5017266;28;20122;-85
2022/08/25 04:42:32;;;;;;;40.00;16.65;;;;;;;20.41;71.74;95032.25;5016873;28;20534;-86
2022/08/25 04:45:00;;;;;;;41.88;17.35;;;;;;;20.54;72.58;95082.28;5016779;28;20056;-85
2022/08/25 04:47:26;;;;;;;35.90;17.67;;;;;;;20.65;72.36;95085.31;5017413;28;20041;-86
2022/08/25 04:49:51;;;;;;;50.13;17.13;;;;;;;20.14;72.05;94996.00;5016760;28;20577;-85
2022/08/25 04:52:17;;;;;;;36.30;15.63;;;;;;;20.24;72.09;95008.22;5017133;28;20131;-86
2022/08/25 04:54:43;;;;;;;48.17;16.00;;;;;;;20.49;71.91;95041.34;5017773;28;20045;-86
2022/08/25 04:57:08;;;;;;;40.17;12.85;;;;;;;20.85;71.68;95092.47;5016953;28;20127;-86
2022/08/25 04:59:34;;;;;;;36.10;13.75;;;;;;;20.34;71.21;94991.66;5018229;28;20437;-86
2022/08/25 05:02:01;;;;;;;36.40;13.00;;;;;;;21.08;70.90;95088.13;5018183;28;20037;-86
2022/08/25 05:04:27;;;;;;;47.60;12.70;;;;;;;21.05;70.65;95088.06;5032713;28;20033;-86
2022/08/25 05:06:53;;;;;;;46.38;12.07;;;;;;;20.49;70.66;95000.94;5016811;28;20081;-85
2022/08/25 05:09:19;;;;;;;38.72;11.75;;;;;;;20.73;70.29;95023.22;4997349;28;20068;-86
2022/08/25 05:11:44;;;;;;;31.17;10.77;;;;;;;20.82;70.47;95049.25;4999156;28;20033;-86
2022/08/25 05:14:12;;;;;;;38.65;10.50;;;;;;;20.62;70.51;95024.81;5016564;28;20087;-86
2022/08/25 05:16:38;;;;;;;30.70;10.75;;;;;;;20.49;70.39;94990.94;5016910;28;20602;-85
2022/08/25 05:19:04;;;;;;;31.58;12.05;;;;;;;20.64;70.25;95008.31;5019220;28;20037;-85
2022/08/25 05:21:29;;;;;;;29.45;11.57;;;;;;;20.86;70.64;95034.75;5014078;28;20060;-85
2022/08/25 05:23:59;;;;;;;23.35;11.27;;;;;;;21.18;69.91;95066.13;5022549;28;20034;-86
2022/08/25 05:26:29;;;;;;;37.30;11.50;;;;;;;20.30;70.16;94955.69;5017043;28;20041;-86
2022/08/25 05:28:56;;;;;;;35.97;11.02;;;;;;;20.96;70.53;95055.06;5004224;28;20548;-86
2022/08/25 05:31:23;;;;;;;34.28;11.93;;;;;;;19.91;71.14;94919.56;5010346;28;20056;-86
2022/08/25 05:33:50;;;;;;;35.53;11.68;;;;;;;20.98;70.98;95069.72;5003374;28;20046;-86
2022/08/25 05:36:16;;;;;;;39.78;12.93;;;;;;;20.10;70.47;94914.34;5012357;28;20034;-85
2022/08/25 05:38:42;;;;;;;41.15;13.48;;;;;;;21.21;70.24;95064.63;5013070;28;20038;-86
2022/08/25 05:41:15;;;;;;;33.67;12.38;;;;;;;20.51;69.72;94955.59;5031308;28;20048;-86
2022/08/25 05:43:42;;;;;;;36.40;11.73;;;;;;;20.83;70.28;95035.41;4998872;28;20535;-86
2022/08/25 05:46:08;;;;;;;35.28;11.45;;;;;;;20.27;70.86;94942.94;5015598;28;20025;-85
2022/08/25 05:48:35;;;;;;;25.20;11.18;;;;;;;20.80;70.26;95028.81;5016889;28;20385;-86
2022/08/25 05:51:03;;;;;;;42.00;12.25;;;;;;;20.63;70.61;94985.97;5012705;28;20084;-86
2022/08/25 05:53:29;;;;;;;29.35;12.10;;;;;;;21.06;70.53;95066.13;5006937;28;20405;-86
2022/08/25 05:55:57;;;;;;;49.47;11.18;;;;;;;21.28;70.19;95062.16;5008114;28;20423;-85
2022/08/25 05:58:23;;;;;;;27.58;12.07;;;;;;;20.23;69.64;94888.19;5018270;28;20087;-85
2022/08/25 06:00:50;;;;;;;29.52;11.95;;;;;;;21.12;69.06;95021.63;5019634;28;20045;-86
2022/08/25 06:03:16;;;;;;;35.55;12.98;;;;;;;21.53;69.68;95065.50;5021677;28;20025;-86
2022/08/25 06:05:41;;;;;;;22.67;11.07;;;;;;;21.14;69.88;95040.13;5019189;28;20091;-85
2022/08/25 06:08:07;;;;;;;42.83;11.18;;;;;;;21.08;69.14;95030.72;5019110;28;20053;-86
2022/08/25 06:10:33;;;;;;;36.25;12.20;;;;;;;21.32;69.67;95070.34;5019281;28;20037;-86
2022/08/25 06:12:59;;;;;;;43.28;11.60;;;;;;;21.41;69.63;95066.38;5020190;28;20048;-85
2022/08/25 06:15:25;;;;;;;28.73;12.13;;;;;;;21.17;69.75;95020.63;5020760;28;20034;-85
2022/08/25 06:17:52;;;;;;;39.85;11.93;;;;;;;21.16;70.11;95038.72;5002078;28;20407;-86
2022/08/25 06:20:21;;;;;;;31.95;11.35;;;;;;;20.98;70.08;94994.25;5004447;28;20490;-87
2022/08/25 06:22:47;;;;;;;39.30;13.63;;;;;;;21.11;70.45;95052.41;5019855;28;20059;-86
2022/08/25 06:25:16;;;;;;;30.40;11.93;;;;;;;20.62;70.30;94959.34;5018980;28;20032;-85
2022/08/25 06:27:41;;;;;;;35.80;12.43;;;;;;;21.51;70.23;95052.34;5019986;28;20033;-86
2022/08/25 06:30:10;;;;;;;36.33;12.60;;;;;;;21.58;70.28;95067.19;5019233;28;20594;-86
2022/08/25 06:32:38;;;;;;;31.65;12.73;;;;;;;21.07;70.18;94981.41;5019085;28;20048;-86
2022/08/25 06:35:07;;;;;;;35.40;11.65;;;;;;;21.31;70.36;95029.09;5007531;28;20037;-86
2022/08/25 06:37:33;;;;;;;37.72;11.43;;;;;;;20.83;70.58;94976.13;5014970;28;20044;-86
2022/08/25 06:39:58;;;;;;;33.35;11.63;;;;;;;21.09;70.73;95010.72;5019778;28;20037;-85
2022/08/25 06:42:24;;;;;;;37.10;12.65;;;;;;;20.77;70.69;94950.53;5019979;28;20172;-85
2022/08/25 06:44:49;;;;;;;34.95;13.23;;;;;;;21.22;70.20;95023.06;5019207;28;20036;-86
2022/08/25 06:47:15;;;;;;;35.97;12.88;;;;;;;20.21;70.31;94833.91;5019030;28;20037;-85
2022/08/25 06:49:42;;;;;;;28.80;11.60;;;;;;;21.79;69.66;95062.34;5000814;28;20038;-86
2022/08/25 06:52:08;;;;;;;25.48;12.48;;;;;;;21.65;69.85;95026.88;5019224;28;20576;-86
2022/08/25 06:54:33;;;;;;;31.05;12.48;;;;;;;20.05;68.96;94769.25;5020094;28;20128;-86
2022/08/25 06:56:59;;;;;;;27.55;11.43;;;;;;;21.22;68.55;94934.06;5018253;28;20526;-85
2022/08/25 06:59:25;;;;;;;31.15;12.75;;;;;;;21.60;68.28;94959.66;5019931;28;20383;-86
2022/08/25 07:01:51;;;;;;;34.08;13.90;;;;;;;21.72;68.08;94959.59;5019909;28;20061;-86
2022/08/25 07:04:16;;;;;;;34.55;12.48;;;;;;;22.28;67.37;95065.47;5021786;28;20551;-86
2022/08/25 07:06:42;;;;;;;36.67;12.45;;;;;;;21.65;67.23;94941.31;5019257;28;20115;-86
2022/08/25 07:09:09;;;;;;;34.95;11.60;;;;;;;21.74;66.70;94946.53;5019858;28;20448;-86
2022/08/25 07:11:35;;;;;;;30.23;12.18;;;;;;;22.12;66.58;95013.41;5018719;28;20573;-85
2022/08/25 07:14:02;;;;;;;31.63;12.00;;;;;;;22.07;66.76;94982.06;5005359;28;20045;-86
2022/08/25 07:16:28;;;;;;;36.58;11.48;;;;;;;22.56;65.89;95039.13;5014503;28;20038;-86
2022/08/25 07:18:55;;;;;;;44.20;12.00;;;;;;;22.76;65.42;95042.69;5018184;28;20043;-85
2022/08/25 07:21:22;;;;;;;25.10;11.75;;;;;;;22.35;65.23;94975.75;5018367;28;20037;-85
2022/08/25 07:23:48;;;;;;;35.83;11.18;;;;;;;22.37;64.26;94976.94;5018863;28;20076;-85
2022/08/25 07:26:17;;;;;;;30.88;11.70;;;;;;;23.17;63.87;95059.38;5019298;28;20563;-85
2022/08/25 07:28:43;;;;;;;41.08;12.10;;;;;;;22.06;64.15;94875.16;5018090;28;20460;-86
2022/08/25 07:31:09;;;;;;;32.47;12.15;;;;;;;23.41;64.06;95064.50;5018543;28;20537;-86
2022/08/25 07:33:34;;;;;;;32.30;10.88;;;;;;;23.08;64.30;95027.13;5018663;28;20033;-86
2022/08/25 07:36:00;;;;;;;33.22;11.35;;;;;;;21.41;64.18;94777.72;5018402;28;20053;-85
2022/08/25 07:38:26;;;;;;;42.92;12.40;;;;;;;23.29;63.92;95051.09;5018937;28;20036;-86
2022/08/25 07:40:53;;;;;;;42.55;12.20;;;;;;;22.23;64.03;94926.09;5019589;28;20033;-85
2022/08/25 07:43:21;;;;;;;34.67;11.43;;;;;;;22.14;63.64;94863.38;5018651;28;20060;-85
2022/08/25 07:45:47;;;;;;;38.78;11.45;;;;;;;23.08;62.99;94992.75;5019344;28;20120;-85
2022/08/25 07:48:13;;;;;;;38.55;10.75;;;;;;;23.47;62.43;95044.09;5019553;28;20092;-86
2022/08/25 07:50:45;;;;;;;46.92;11.30;;;;;;;21.83;62.37;94795.97;5018341;28;20045;-85
2022/08/25 07:53:12;;;;;;;25.83;9.65;;;;;;;22.70;61.71;94898.09;5020180;28;20044;-85
2022/08/25 07:55:38;;;;;;;31.48;11.18;;;;;;;23.48;61.67;95018.66;4999005;28;20566;-86
2022/08/25 07:58:05;;;;;;;25.85;10.55;;;;;;;23.13;61.20;94921.31;5017480;28;20075;-86
2022/08/25 08:00:33;;;;;;;35.95;10.77;;;;;;;24.21;60.85;95052.78;5019155;28;20464;-85
2022/08/25 08:03:01;;;;;;;34.70;10.38;;;;;;;24.39;60.57;95047.66;5017619;28;20464;-85
2022/08/25 08:05:27;;;;;;;27.63;9.65;;;;;;;23.93;59.97;94974.53;5017895;28;20041;-86
2022/08/25 08:07:54;;;;;;;41.42;11.05;;;;;;;24.52;59.60;95046.31;5017300;28;20158;-85
2022/08/25 08:10:20;;;;;;;34.50;10.45;;;;;;;23.76;59.51;94886.47;5010233;28;20037;-86
2022/08/25 08:12:46;;;;;;;40.05;11.18;;;;;;;22.93;59.04;94760.28;5008508;28;20099;-86
2022/08/25 08:15:13;;;;;;;57.60;10.40;;;;;;;24.58;57.52;95021.22;5019618;28;20060;-86
2022/08/25 08:17:39;;;;;;;30.15;8.95;;;;;;;24.40;57.39;94971.41;5004016;28;20141;-85
2022/08/25 08:20:09;;;;;;;44.15;8.57;;;;;;;25.02;56.68;95036.19;4998063;28;20696;-85
2022/08/25 08:22:36;;;;;;;33.90;9.18;;;;;;;23.87;57.70;94892.06;4997216;28;20104;-86
2022/08/25 08:25:03;;;;;;;36.30;9.32;;;;;;;24.66;58.05;95034.88;5016597;28;20116;-86
2022/08/25 08:27:28;;;;;;;42.08;8.90;;;;;;;24.85;57.00;95027.41;5017134;28;20048;-86
2022/08/25 08:29:54;;;;;;;37.55;9.73;;;;;;;24.80;57.34;95026.94;4997479;28;20042;-85
2022/08/25 08:32:20;;;;;;;41.15;10.00;;;;;;;24.97;57.24;95034.53;4997528;28;20091;-85
2022/08/25 08:34:46;;;;;;;51.55;10.35;;;;;;;24.91;56.90;95003.47;5000476;28;20504;-85
2022/08/25 08:37:12;;;;;;;41.70;8.77;;;;;;;25.17;55.95;95033.28;5017216;28;20034;-85
2022/08/25 08:39:38;;;;;;;39.20;8.35;;;;;;;25.14;55.93;95003.38;5017705;28;20526;-85
2022/08/25 08:42:28;;;;;;;54.55;9.57;;;;;;;25.35;56.16;95019.88;5010728;28;20140;-86
2022/08/25 08:45:02;;;;;;;52.53;7.93;;;;;;;25.22;54.16;95026.72;5009327;28;20037;-86
2022/08/25 08:47:40;;;;;;;51.47;9.00;;;;;;;25.13;54.32;95020.78;5017194;28;20037;-85
2022/08/25 08:50:27;;;;;;;42.67;8.13;;;;;;;25.26;54.01;95027.53;5001197;28;20579;-85
2022/08/25 08:53:28;;;;;;;47.65;9.02;;;;;;;25.30;53.75;95020.22;5001172;28;20808;-85
2022/08/25 08:55:59;;;;;;;36.42;8.45;;;;;;;25.42;54.00;95030.81;5002556;28;20080;-85
2022/08/25 08:58:41;;;;;;;46.13;8.48;;;;;;;25.34;52.87;94993.88;5010062;28;20136;-85
2022/08/25 09:01:08;;;;;;;;;;;;;;;25.57;52.51;95020.88;5017382;28;20048;-86
2022/08/25 09:03:42;;;;;;;33.78;7.30;;;;;;;25.15;50.51;94975.09;5000176;28;19928;-86
2022/08/25 09:06:16;;;;;;;44.83;8.80;;;;;;;25.17;50.85;94987.13;4996485;28;20520;-85
2022/08/25 09:08:43;;;;;;;56.75;9.02;;;;;;;25.09;51.06;94941.31;5016061;28;20045;-86
2022/08/25 09:11:30;;;;;;;36.85;6.95;;;;;;;25.78;50.97;95014.94;4996391;28;20046;-86
2022/08/25 09:14:20;;;;;;;40.28;7.95;;;;;;;25.38;51.72;95019.94;5004822;28;20041;-86
2022/08/25 09:17:01;;;;;;;36.67;6.55;;;;;;;25.05;50.21;94948.59;5015954;28;20404;-86
2022/08/25 09:19:42;;;;;;;49.13;7.63;;;;;;;25.77;49.72;95019.59;5019284;28;20037;-85
2022/08/25 09:22:16;;;;;;;42.20;8.37;;;;;;;25.80;49.85;95016.09;5018300;28;20038;-85
2022/08/25 09:24:59;;;;;;;49.90;8.52;;;;;;;25.72;49.05;94988.09;5018066;28;20462;-86
2022/08/25 09:27:43;;;;;;;42.38;7.90;;;;;;;24.42;48.96;94767.75;5017129;28;20029;-86
2022/08/25 09:30:12;;;;;;;45.20;7.72;;;;;;;26.18;49.14;95009.44;5016863;28;20862;-85
2022/08/25 09:32:45;;;;;;;36.47;7.15;;;;;;;25.92;48.53;94939.75;5016397;28;20567;-85
2022/08/25 09:35:26;;;;;;;43.08;8.15;;;;;;;26.20;47.42;95014.50;5017168;28;20033;-85
2022/08/25 09:38:10;;;;;;;41.17;8.02;;;;;;;26.02;47.15;94971.66;5016446;28;20068;-85
2022/08/25 09:40:39;;;;;;;45.13;7.95;;;;;;;26.04;48.78;94950.31;5016132;28;20034;-86
2022/08/25 09:43:22;;;;;;;44.50;6.55;;;;;;;25.87;45.80;94907.50;5016940;28;20037;-86
2022/08/25 09:45:56;;;;;;;34.63;4.97;;;;;;;26.54;46.46;94999.63;5006473;28;20026;-85
2022/08/25 09:48:24;;;;;;;55.33;6.43;;;;;;;26.73;47.31;94993.13;5008982;28;20033;-84
2022/08/25 09:50:56;;;;;;;49.20;6.13;;;;;;;27.01;44.79;95006.09;5017276;28;20563;-85
2022/08/25 09:53:23;;;;;;;50.65;6.07;;;;;;;26.95;43.79;95004.91;5016063;28;20063;-84
2022/08/25 09:55:58;;;;;;;34.65;6.03;;;;;;;26.08;45.24;94866.91;5017223;28;20468;-85
2022/08/25 09:58:24;;;;;;;48.40;6.00;;;;;;;26.98;43.13;94930.69;5012793;28;20041;-85
2022/08/25 10:01:00;;;;;;;42.65;5.85;;;;;;;27.05;43.80;94960.63;5015439;28;20041;-85
2022/08/25 10:03:26;;;;;;;52.72;7.00;;;;;;;27.09;44.30;94985.91;5017062;28;20033;-85
2022/08/25 10:05:56;;;;;;;38.38;5.43;;;;;;;27.07;43.83;95010.81;5015362;28;20064;-85
2022/08/25 10:08:44;;;;;;;46.83;4.55;;;;;;;26.77;45.62;94958.56;5015152;28;20843;-86
2022/08/25 10:11:14;;;;;;;40.15;6.13;;;;;;;27.19;45.27;94975.06;5016341;28;20049;-86
2022/08/25 10:13:46;;;;;;;37.67;6.28;;;;;;;27.96;43.49;95000.16;5016025;28;20128;-86
2022/08/25 10:16:22;;;;;;;44.30;6.20;;;;;;;28.11;41.31;94911.75;5015925;28;20037;-85
2022/08/25 10:19:22;;;;;;;33.60;5.32;;;;;;;29.07;39.17;94938.78;5015663;28;20037;-86
2022/08/25 10:22:09;;;;;;;42.10;6.30;;;;;;;29.98;39.98;94941.38;5001125;28;20183;-85
2022/08/25 10:24:36;;;;;;;52.72;6.32;;;;;;;30.82;37.78;94994.50;5018803;28;20060;-86
2022/08/25 10:27:13;;;;;;;50.15;5.70;;;;;;;31.39;37.35;95000.13;5016931;28;20271;-85
2022/08/25 10:30:02;;;;;;;30.75;5.70;;;;;;;31.93;36.71;94996.69;5019326;28;20045;-86
2022/08/25 10:32:30;;;;;;;42.28;5.85;;;;;;;32.12;35.29;94994.00;5017318;28;20045;-86
2022/08/25 10:35:01;;;;;;;46.10;6.30;;;;;;;32.30;34.02;94985.53;5018105;28;20042;-85
2022/08/25 10:37:33;;;;;;;71.10;7.03;;;;;;;32.72;33.94;94975.03;5018632;28;20037;-86
2022/08/25 10:40:20;;;;;;;55.20;6.15;;;;;;;33.13;33.84;94988.31;4999533;28;20033;-85
2022/08/25 10:43:05;;;;;;;40.72;6.05;;;;;;;33.46;31.71;94978.25;5000310;28;20181;-86
2022/08/25 10:45:43;;;;;;;31.30;4.72;;;;;;;33.44;30.56;94945.69;5000212;28;20072;-86
2022/08/25 10:48:24;;;;;;;31.58;4.65;;;;;;;33.57;30.47;94970.53;5016549;28;20935;-85
2022/08/25 10:51:08;;;;;;;35.30;5.20;;;;;;;33.34;30.86;94972.19;5001029;28;20505;-85
2022/08/25 10:53:58;;;;;;;39.03;5.57;;;;;;;32.96;31.74;94971.78;5019285;28;20492;-85
2022/08/25 10:56:34;;;;;;;32.58;4.50;;;;;;;32.24;33.67;94937.81;5010614;28;20038;-85
2022/08/25 10:59:09;;;;;;;41.70;5.90;;;;;;;32.59;32.76;94978.34;5009556;28;20069;-85
2022/08/25 11:01:56;;;;;;;43.53;6.30;;;;;;;32.27;32.60;94971.88;5018743;28;20037;-86
2022/08/25 11:04:38;;;;;;;43.42;6.10;;;;;;;32.39;32.03;94961.06;5019311;28;20511;-85
2022/08/25 11:07:18;;;;;;;32.78;5.78;;;;;;;32.71;31.98;94935.03;5021434;28;20283;-86
2022/08/25 11:09:49;;;;;;;26.77;4.82;;;;;;;32.57;34.20;94939.56;5019514;28;20049;-85
2022/08/25 11:12:24;;;;;;;39.58;5.60;;;;;;;32.94;32.77;94943.97;5018864;28;20029;-85
2022/08/25 11:14:56;;;;;;;41.53;4.93;;;;;;;33.14;31.79;94938.47;5019721;28;20089;-85
2022/08/25 11:17:26;;;;;;;39.42;5.65;;;;;;;32.73;32.00;94875.72;5021427;28;20037;-85
2022/08/25 11:20:02;;;;;;;41.63;5.85;;;;;;;33.03;31.21;94885.72;5019227;28;20036;-85
2022/08/25 11:22:34;;;;;;;43.63;5.28;;;;;;;33.37;31.57;94890.88;5020184;28;20100;-85
2022/08/25 11:25:06;;;;;;;29.17;4.88;;;;;;;33.36;31.60;94927.81;5018273;28;20037;-85
2022/08/25 11:28:00;;;;;;;26.30;4.20;;;;;;;33.64;31.93;94942.91;5019809;28;20104;-85
2022/08/25 11:30:27;;;;;;;37.55;4.70;;;;;;;33.36;31.17;94869.31;5018830;28;20033;-86
2022/08/25 11:32:54;;;;;;;27.50;5.13;;;;;;;34.13;29.61;94927.19;5020328;28;20037;-85